sensor_id;sensor_type;location;lat;lon;timestamp;temperature;humidity
52973;DHT22;38837;48.916;2.336;2023-06-04T00:01:41;23.40;39.90
52973;DHT22;38837;48.916;2.336;2023-06-04T00:03:43;23.40;39.90
52973;DHT22;38837;48.916;2.336;2023-06-04T00:05:45;23.40;39.90
52973;DHT22;38837;48.916;2.336;2023-06-04T00:07:47;23.40;39.90
52973;DHT22;38837;48.916;2.336;2023-06-04T00:09:49;23.40;39.90
52973;DHT22;38837;48.916;2.336;2023-06-04T00:11:51;23.40;39.90
52973;DHT22;38837;48.916;2.336;2023-06-04T00:13:53;23.40;39.90
52973;DHT22;38837;48.916;2.336;2023-06-04T00:15:55;23.30;39.90
52973;DHT22;38837;48.916;2.336;2023-06-04T00:17:57;23.30;39.90
52973;DHT22;38837;48.916;2.336;2023-06-04T00:19:59;23.40;39.90
52973;DHT22;38837;48.916;2.336;2023-06-04T00:22:01;23.30;39.90
52973;DHT22;38837;48.916;2.336;2023-06-04T00:24:03;23.30;39.90
52973;DHT22;38837;48.916;2.336;2023-06-04T00:26:05;23.30;39.90
52973;DHT22;38837;48.916;2.336;2023-06-04T00:28:08;23.30;39.90
52973;DHT22;38837;48.916;2.336;2023-06-04T00:30:10;23.30;40.00
52973;DHT22;38837;48.916;2.336;2023-06-04T00:32:12;23.30;40.00
52973;DHT22;38837;48.916;2.336;2023-06-04T00:34:14;23.30;40.00
52973;DHT22;38837;48.916;2.336;2023-06-04T00:36:16;23.30;40.00
52973;DHT22;38837;48.916;2.336;2023-06-04T00:38:18;23.30;40.00
52973;DHT22;38837;48.916;2.336;2023-06-04T00:40:20;23.30;40.00
52973;DHT22;38837;48.916;2.336;2023-06-04T00:42:21;23.20;40.00
52973;DHT22;38837;48.916;2.336;2023-06-04T00:44:23;23.30;40.00
52973;DHT22;38837;48.916;2.336;2023-06-04T00:46:27;23.30;40.00
52973;DHT22;38837;48.916;2.336;2023-06-04T00:48:30;23.30;40.10
52973;DHT22;38837;48.916;2.336;2023-06-04T00:50:32;23.20;40.00
52973;DHT22;38837;48.916;2.336;2023-06-04T00:52:34;23.20;40.00
52973;DHT22;38837;48.916;2.336;2023-06-04T00:54:36;23.20;40.00
52973;DHT22;38837;48.916;2.336;2023-06-04T00:56:39;23.20;40.00
52973;DHT22;38837;48.916;2.336;2023-06-04T00:58:42;23.20;40.00
52973;DHT22;38837;48.916;2.336;2023-06-04T01:00:47;23.20;40.00
52973;DHT22;38837;48.916;2.336;2023-06-04T01:02:51;23.20;40.10
52973;DHT22;38837;48.916;2.336;2023-06-04T01:05:11;23.20;40.10
52973;DHT22;38837;48.916;2.336;2023-06-04T01:07:16;23.10;40.00
52973;DHT22;38837;48.916;2.336;2023-06-04T01:09:19;23.10;40.00
52973;DHT22;38837;48.916;2.336;2023-06-04T01:11:50;23.10;40.00
52973;DHT22;38837;48.916;2.336;2023-06-04T01:13:52;23.10;40.00
52973;DHT22;38837;48.916;2.336;2023-06-04T01:15:54;23.10;40.00
52973;DHT22;38837;48.916;2.336;2023-06-04T01:17:59;23.10;40.60
52973;DHT22;38837;48.916;2.336;2023-06-04T01:22:29;23.10;40.00
52973;DHT22;38837;48.916;2.336;2023-06-04T01:24:35;23.10;40.00
52973;DHT22;38837;48.916;2.336;2023-06-04T01:26:40;23.10;40.10
52973;DHT22;38837;48.916;2.336;2023-06-04T01:28:42;23.10;40.10
52973;DHT22;38837;48.916;2.336;2023-06-04T01:30:46;23.10;40.10
52973;DHT22;38837;48.916;2.336;2023-06-04T01:32:49;23.10;40.10
52973;DHT22;38837;48.916;2.336;2023-06-04T01:34:51;23.00;40.00
52973;DHT22;38837;48.916;2.336;2023-06-04T01:36:53;23.10;40.10
52973;DHT22;38837;48.916;2.336;2023-06-04T01:38:55;23.10;40.10
52973;DHT22;38837;48.916;2.336;2023-06-04T01:40:57;23.00;40.00
52973;DHT22;38837;48.916;2.336;2023-06-04T01:43:03;23.00;40.00
52973;DHT22;38837;48.916;2.336;2023-06-04T01:45:06;23.00;40.00
52973;DHT22;38837;48.916;2.336;2023-06-04T01:47:07;23.00;40.00
52973;DHT22;38837;48.916;2.336;2023-06-04T01:49:09;23.00;40.00
52973;DHT22;38837;48.916;2.336;2023-06-04T01:51:12;23.00;40.00
52973;DHT22;38837;48.916;2.336;2023-06-04T01:53:14;23.00;40.00
52973;DHT22;38837;48.916;2.336;2023-06-04T01:55:16;23.00;40.10
52973;DHT22;38837;48.916;2.336;2023-06-04T01:57:20;23.00;40.10
52973;DHT22;38837;48.916;2.336;2023-06-04T01:59:22;23.00;40.10
52973;DHT22;38837;48.916;2.336;2023-06-04T02:01:24;23.00;40.10
52973;DHT22;38837;48.916;2.336;2023-06-04T02:03:26;22.90;40.00
52973;DHT22;38837;48.916;2.336;2023-06-04T02:05:29;22.90;40.60
52973;DHT22;38837;48.916;2.336;2023-06-04T02:07:31;22.90;40.00
52973;DHT22;38837;48.916;2.336;2023-06-04T02:09:33;22.90;40.00
52973;DHT22;38837;48.916;2.336;2023-06-04T02:11:35;22.90;40.10
52973;DHT22;38837;48.916;2.336;2023-06-04T02:13:37;22.90;40.10
52973;DHT22;38837;48.916;2.336;2023-06-04T02:15:38;23.00;40.10
52973;DHT22;38837;48.916;2.336;2023-06-04T02:17:40;22.90;40.00
52973;DHT22;38837;48.916;2.336;2023-06-04T02:19:45;22.90;40.00
52973;DHT22;38837;48.916;2.336;2023-06-04T02:21:51;22.90;40.00
52973;DHT22;38837;48.916;2.336;2023-06-04T02:23:53;22.90;40.00
52973;DHT22;38837;48.916;2.336;2023-06-04T02:25:55;22.90;40.00
52973;DHT22;38837;48.916;2.336;2023-06-04T02:27:57;22.90;40.00
52973;DHT22;38837;48.916;2.336;2023-06-04T02:29:59;22.90;40.00
52973;DHT22;38837;48.916;2.336;2023-06-04T02:32:02;22.90;40.00
52973;DHT22;38837;48.916;2.336;2023-06-04T02:34:04;22.90;40.10
52973;DHT22;38837;48.916;2.336;2023-06-04T02:36:06;22.80;40.00
52973;DHT22;38837;48.916;2.336;2023-06-04T02:38:08;22.80;40.00
52973;DHT22;38837;48.916;2.336;2023-06-04T02:40:10;22.80;40.00
52973;DHT22;38837;48.916;2.336;2023-06-04T02:42:12;22.80;39.90
52973;DHT22;38837;48.916;2.336;2023-06-04T02:44:15;22.80;40.00
52973;DHT22;38837;48.916;2.336;2023-06-04T02:46:16;22.80;40.00
52973;DHT22;38837;48.916;2.336;2023-06-04T02:48:18;22.80;40.00
52973;DHT22;38837;48.916;2.336;2023-06-04T02:50:20;22.80;39.90
52973;DHT22;38837;48.916;2.336;2023-06-04T02:52:22;22.80;40.00
52973;DHT22;38837;48.916;2.336;2023-06-04T02:54:26;22.80;40.00
52973;DHT22;38837;48.916;2.336;2023-06-04T02:56:28;22.80;40.00
52973;DHT22;38837;48.916;2.336;2023-06-04T02:58:30;22.80;40.00
52973;DHT22;38837;48.916;2.336;2023-06-04T03:00:33;22.80;40.00
52973;DHT22;38837;48.916;2.336;2023-06-04T03:02:34;22.80;40.00
52973;DHT22;38837;48.916;2.336;2023-06-04T03:04:37;22.80;40.00
52973;DHT22;38837;48.916;2.336;2023-06-04T03:06:38;22.70;40.00
52973;DHT22;38837;48.916;2.336;2023-06-04T03:08:41;22.70;39.90
52973;DHT22;38837;48.916;2.336;2023-06-04T03:10:43;22.80;39.90
52973;DHT22;38837;48.916;2.336;2023-06-04T03:12:45;22.70;39.90
52973;DHT22;38837;48.916;2.336;2023-06-04T03:14:47;22.70;39.90
52973;DHT22;38837;48.916;2.336;2023-06-04T03:16:49;22.70;39.90
52973;DHT22;38837;48.916;2.336;2023-06-04T03:18:53;22.70;40.00
52973;DHT22;38837;48.916;2.336;2023-06-04T03:20:55;22.70;39.90
52973;DHT22;38837;48.916;2.336;2023-06-04T03:22:57;22.70;39.90
52973;DHT22;38837;48.916;2.336;2023-06-04T03:24:59;22.70;39.90
52973;DHT22;38837;48.916;2.336;2023-06-04T03:27:02;22.70;39.90
52973;DHT22;38837;48.916;2.336;2023-06-04T03:29:05;22.70;39.90
52973;DHT22;38837;48.916;2.336;2023-06-04T03:31:07;22.60;39.90
52973;DHT22;38837;48.916;2.336;2023-06-04T03:33:09;22.70;39.90
52973;DHT22;38837;48.916;2.336;2023-06-04T03:35:11;22.70;39.90
52973;DHT22;38837;48.916;2.336;2023-06-04T03:37:13;22.60;39.80
52973;DHT22;38837;48.916;2.336;2023-06-04T03:39:15;22.70;39.90
52973;DHT22;38837;48.916;2.336;2023-06-04T03:41:17;22.60;39.80
52973;DHT22;38837;48.916;2.336;2023-06-04T03:43:20;22.60;39.90
52973;DHT22;38837;48.916;2.336;2023-06-04T03:45:22;22.60;39.80
52973;DHT22;38837;48.916;2.336;2023-06-04T03:47:23;22.60;39.90
52973;DHT22;38837;48.916;2.336;2023-06-04T03:49:26;22.60;39.90
52973;DHT22;38837;48.916;2.336;2023-06-04T03:51:28;22.60;39.80
52973;DHT22;38837;48.916;2.336;2023-06-04T03:53:30;22.60;39.80
52973;DHT22;38837;48.916;2.336;2023-06-04T03:55:32;22.60;39.90
52973;DHT22;38837;48.916;2.336;2023-06-04T03:57:34;22.60;39.90
52973;DHT22;38837;48.916;2.336;2023-06-04T03:59:36;22.60;39.80
52973;DHT22;38837;48.916;2.336;2023-06-04T04:01:38;22.60;39.90
52973;DHT22;38837;48.916;2.336;2023-06-04T04:03:40;22.60;39.90
52973;DHT22;38837;48.916;2.336;2023-06-04T04:05:42;22.60;39.90
52973;DHT22;38837;48.916;2.336;2023-06-04T04:07:44;22.60;39.90
52973;DHT22;38837;48.916;2.336;2023-06-04T04:09:46;22.60;39.90
52973;DHT22;38837;48.916;2.336;2023-06-04T04:11:48;22.60;39.90
52973;DHT22;38837;48.916;2.336;2023-06-04T04:13:50;22.60;40.00
52973;DHT22;38837;48.916;2.336;2023-06-04T04:15:52;22.50;39.80
52973;DHT22;38837;48.916;2.336;2023-06-04T04:17:55;22.60;39.90
52973;DHT22;38837;48.916;2.336;2023-06-04T04:19:57;22.60;39.90
52973;DHT22;38837;48.916;2.336;2023-06-04T04:21:59;22.50;39.90
52973;DHT22;38837;48.916;2.336;2023-06-04T04:24:01;22.50;39.80
52973;DHT22;38837;48.916;2.336;2023-06-04T04:26:04;22.50;39.90
52973;DHT22;38837;48.916;2.336;2023-06-04T04:28:06;22.50;39.90
52973;DHT22;38837;48.916;2.336;2023-06-04T04:30:09;22.50;39.90
52973;DHT22;38837;48.916;2.336;2023-06-04T04:32:11;22.50;39.80
52973;DHT22;38837;48.916;2.336;2023-06-04T04:34:13;22.50;39.90
52973;DHT22;38837;48.916;2.336;2023-06-04T04:36:16;22.60;40.00
52973;DHT22;38837;48.916;2.336;2023-06-04T04:38:22;22.50;39.80
52973;DHT22;38837;48.916;2.336;2023-06-04T04:40:25;22.50;39.90
52973;DHT22;38837;48.916;2.336;2023-06-04T04:42:27;22.50;39.90
52973;DHT22;38837;48.916;2.336;2023-06-04T04:44:29;22.50;39.90
52973;DHT22;38837;48.916;2.336;2023-06-04T04:46:31;22.50;39.90
52973;DHT22;38837;48.916;2.336;2023-06-04T04:48:33;22.50;39.80
52973;DHT22;38837;48.916;2.336;2023-06-04T04:50:35;22.50;39.80
52973;DHT22;38837;48.916;2.336;2023-06-04T04:52:37;22.50;39.90
52973;DHT22;38837;48.916;2.336;2023-06-04T04:54:39;22.50;39.80
52973;DHT22;38837;48.916;2.336;2023-06-04T04:56:41;22.50;39.80
52973;DHT22;38837;48.916;2.336;2023-06-04T04:58:43;22.50;39.90
52973;DHT22;38837;48.916;2.336;2023-06-04T05:00:45;22.50;39.80
52973;DHT22;38837;48.916;2.336;2023-06-04T05:02:49;22.50;39.90
52973;DHT22;38837;48.916;2.336;2023-06-04T05:04:51;22.50;39.90
52973;DHT22;38837;48.916;2.336;2023-06-04T05:06:53;22.50;39.90
52973;DHT22;38837;48.916;2.336;2023-06-04T05:08:55;22.50;39.90
52973;DHT22;38837;48.916;2.336;2023-06-04T05:10:56;22.50;39.90
52973;DHT22;38837;48.916;2.336;2023-06-04T05:12:59;22.50;39.90
52973;DHT22;38837;48.916;2.336;2023-06-04T05:15:02;22.40;39.80
52973;DHT22;38837;48.916;2.336;2023-06-04T05:17:05;22.40;39.80
52973;DHT22;38837;48.916;2.336;2023-06-04T05:19:08;22.50;39.90
52973;DHT22;38837;48.916;2.336;2023-06-04T05:21:12;22.40;39.80
52973;DHT22;38837;48.916;2.336;2023-06-04T05:23:14;22.40;39.80
52973;DHT22;38837;48.916;2.336;2023-06-04T05:25:16;22.40;39.80
52973;DHT22;38837;48.916;2.336;2023-06-04T05:27:18;22.40;39.80
52973;DHT22;38837;48.916;2.336;2023-06-04T05:29:20;22.40;39.80
52973;DHT22;38837;48.916;2.336;2023-06-04T05:31:22;22.40;39.70
52973;DHT22;38837;48.916;2.336;2023-06-04T05:33:30;22.40;39.80
52973;DHT22;38837;48.916;2.336;2023-06-04T05:35:32;22.40;39.80
52973;DHT22;38837;48.916;2.336;2023-06-04T05:37:35;22.40;40.30
52973;DHT22;38837;48.916;2.336;2023-06-04T05:39:39;22.40;39.80
52973;DHT22;38837;48.916;2.336;2023-06-04T05:41:42;22.40;39.80
52973;DHT22;38837;48.916;2.336;2023-06-04T05:43:44;22.30;39.70
52973;DHT22;38837;48.916;2.336;2023-06-04T05:45:46;22.40;39.70
52973;DHT22;38837;48.916;2.336;2023-06-04T05:47:48;22.40;39.70
52973;DHT22;38837;48.916;2.336;2023-06-04T05:49:50;22.40;39.70
52973;DHT22;38837;48.916;2.336;2023-06-04T05:51:52;22.30;39.70
52973;DHT22;38837;48.916;2.336;2023-06-04T05:53:54;22.30;39.70
52973;DHT22;38837;48.916;2.336;2023-06-04T05:55:56;22.30;39.60
52973;DHT22;38837;48.916;2.336;2023-06-04T05:57:57;22.30;39.70
52973;DHT22;38837;48.916;2.336;2023-06-04T05:59:59;22.30;39.60
52973;DHT22;38837;48.916;2.336;2023-06-04T06:02:01;22.30;39.60
52973;DHT22;38837;48.916;2.336;2023-06-04T06:04:04;22.30;39.60
52973;DHT22;38837;48.916;2.336;2023-06-04T06:06:07;22.30;39.60
52973;DHT22;38837;48.916;2.336;2023-06-04T06:08:13;22.30;39.60
52973;DHT22;38837;48.916;2.336;2023-06-04T06:10:15;22.30;39.60
52973;DHT22;38837;48.916;2.336;2023-06-04T06:12:17;22.30;39.60
52973;DHT22;38837;48.916;2.336;2023-06-04T06:14:19;22.30;39.70
52973;DHT22;38837;48.916;2.336;2023-06-04T06:16:22;22.20;39.50
52973;DHT22;38837;48.916;2.336;2023-06-04T06:18:24;22.30;39.60
52973;DHT22;38837;48.916;2.336;2023-06-04T06:20:26;22.30;39.60
52973;DHT22;38837;48.916;2.336;2023-06-04T06:22:28;22.20;39.60
52973;DHT22;38837;48.916;2.336;2023-06-04T06:24:30;22.20;39.60
52973;DHT22;38837;48.916;2.336;2023-06-04T06:26:32;22.20;39.60
52973;DHT22;38837;48.916;2.336;2023-06-04T06:28:34;22.20;39.60
52973;DHT22;38837;48.916;2.336;2023-06-04T06:30:37;22.20;39.50
52973;DHT22;38837;48.916;2.336;2023-06-04T06:32:39;22.20;39.50
52973;DHT22;38837;48.916;2.336;2023-06-04T06:34:42;22.20;39.60
52973;DHT22;38837;48.916;2.336;2023-06-04T06:36:43;22.20;39.50
52973;DHT22;38837;48.916;2.336;2023-06-04T06:38:45;22.20;39.50
52973;DHT22;38837;48.916;2.336;2023-06-04T06:40:47;22.20;39.40
52973;DHT22;38837;48.916;2.336;2023-06-04T06:42:50;22.20;39.50
52973;DHT22;38837;48.916;2.336;2023-06-04T06:44:54;22.20;39.50
52973;DHT22;38837;48.916;2.336;2023-06-04T06:46:57;22.20;39.50
52973;DHT22;38837;48.916;2.336;2023-06-04T06:48:59;22.20;39.50
52973;DHT22;38837;48.916;2.336;2023-06-04T06:51:01;22.20;39.50
52973;DHT22;38837;48.916;2.336;2023-06-04T06:53:03;22.20;39.50
52973;DHT22;38837;48.916;2.336;2023-06-04T06:55:05;22.20;39.50
52973;DHT22;38837;48.916;2.336;2023-06-04T06:57:07;22.20;39.50
52973;DHT22;38837;48.916;2.336;2023-06-04T06:59:10;22.20;39.60
52973;DHT22;38837;48.916;2.336;2023-06-04T07:01:13;22.20;39.60
52973;DHT22;38837;48.916;2.336;2023-06-04T07:03:15;22.20;39.70
52973;DHT22;38837;48.916;2.336;2023-06-04T07:05:17;22.20;39.80
52973;DHT22;38837;48.916;2.336;2023-06-04T07:07:19;22.20;39.80
52973;DHT22;38837;48.916;2.336;2023-06-04T07:09:21;22.20;39.80
52973;DHT22;38837;48.916;2.336;2023-06-04T07:11:23;22.20;39.70
52973;DHT22;38837;48.916;2.336;2023-06-04T07:13:27;22.20;39.80
52973;DHT22;38837;48.916;2.336;2023-06-04T07:15:29;22.20;39.70
52973;DHT22;38837;48.916;2.336;2023-06-04T07:17:31;22.20;39.70
52973;DHT22;38837;48.916;2.336;2023-06-04T07:19:33;22.20;39.60
52973;DHT22;38837;48.916;2.336;2023-06-04T07:21:35;22.20;39.70
52973;DHT22;38837;48.916;2.336;2023-06-04T07:23:37;22.20;39.70
52973;DHT22;38837;48.916;2.336;2023-06-04T07:25:39;22.20;39.60
52973;DHT22;38837;48.916;2.336;2023-06-04T07:27:41;22.20;39.50
52973;DHT22;38837;48.916;2.336;2023-06-04T07:29:44;22.30;39.50
52973;DHT22;38837;48.916;2.336;2023-06-04T07:31:48;22.30;39.50
52973;DHT22;38837;48.916;2.336;2023-06-04T07:33:50;22.30;39.50
52973;DHT22;38837;48.916;2.336;2023-06-04T07:35:52;22.30;39.30
52973;DHT22;38837;48.916;2.336;2023-06-04T07:37:54;22.30;39.50
52973;DHT22;38837;48.916;2.336;2023-06-04T07:39:56;22.30;39.50
52973;DHT22;38837;48.916;2.336;2023-06-04T07:41:58;22.30;39.50
52973;DHT22;38837;48.916;2.336;2023-06-04T07:44:00;22.30;40.00
52973;DHT22;38837;48.916;2.336;2023-06-04T07:46:05;22.30;39.50
52973;DHT22;38837;48.916;2.336;2023-06-04T07:48:09;22.30;40.00
52973;DHT22;38837;48.916;2.336;2023-06-04T07:50:12;22.30;39.40
52973;DHT22;38837;48.916;2.336;2023-06-04T07:52:14;22.30;39.40
52973;DHT22;38837;48.916;2.336;2023-06-04T07:54:16;22.30;39.50
52973;DHT22;38837;48.916;2.336;2023-06-04T07:56:18;22.30;39.50
52973;DHT22;38837;48.916;2.336;2023-06-04T07:58:20;22.30;39.50
52973;DHT22;38837;48.916;2.336;2023-06-04T08:00:22;22.30;39.50
52973;DHT22;38837;48.916;2.336;2023-06-04T08:02:24;22.30;39.50
52973;DHT22;38837;48.916;2.336;2023-06-04T08:04:26;22.30;39.60
52973;DHT22;38837;48.916;2.336;2023-06-04T08:06:28;22.20;39.50
52973;DHT22;38837;48.916;2.336;2023-06-04T08:08:30;22.30;39.60
52973;DHT22;38837;48.916;2.336;2023-06-04T08:10:33;22.30;39.60
52973;DHT22;38837;48.916;2.336;2023-06-04T08:12:35;22.30;39.60
52973;DHT22;38837;48.916;2.336;2023-06-04T08:14:37;22.20;39.60
52973;DHT22;38837;48.916;2.336;2023-06-04T08:16:39;22.30;39.60
52973;DHT22;38837;48.916;2.336;2023-06-04T08:18:45;22.30;39.60
52973;DHT22;38837;48.916;2.336;2023-06-04T08:20:46;22.30;39.60
52973;DHT22;38837;48.916;2.336;2023-06-04T08:22:48;22.30;39.60
52973;DHT22;38837;48.916;2.336;2023-06-04T08:24:50;22.30;39.50
52973;DHT22;38837;48.916;2.336;2023-06-04T08:26:52;22.40;39.60
52973;DHT22;38837;48.916;2.336;2023-06-04T08:28:55;22.40;39.60
52973;DHT22;38837;48.916;2.336;2023-06-04T08:30:57;22.40;39.50
52973;DHT22;38837;48.916;2.336;2023-06-04T08:32:59;22.50;39.50
52973;DHT22;38837;48.916;2.336;2023-06-04T08:35:01;22.50;39.50
52973;DHT22;38837;48.916;2.336;2023-06-04T08:37:02;22.50;39.50
52973;DHT22;38837;48.916;2.336;2023-06-04T08:39:04;22.50;39.50
52973;DHT22;38837;48.916;2.336;2023-06-04T08:41:18;22.60;39.40
52973;DHT22;38837;48.916;2.336;2023-06-04T08:43:22;22.60;39.40
52973;DHT22;38837;48.916;2.336;2023-06-04T08:45:24;22.60;39.30
52973;DHT22;38837;48.916;2.336;2023-06-04T08:47:29;22.60;39.40
52973;DHT22;38837;48.916;2.336;2023-06-04T08:49:33;22.60;39.40
52973;DHT22;38837;48.916;2.336;2023-06-04T08:51:37;22.60;39.30
52973;DHT22;38837;48.916;2.336;2023-06-04T08:53:39;22.60;39.30
52973;DHT22;38837;48.916;2.336;2023-06-04T08:55:42;22.60;39.20
52973;DHT22;38837;48.916;2.336;2023-06-04T08:57:44;22.60;39.20
52973;DHT22;38837;48.916;2.336;2023-06-04T08:59:47;22.60;39.20
52973;DHT22;38837;48.916;2.336;2023-06-04T09:01:53;22.60;39.70
52973;DHT22;38837;48.916;2.336;2023-06-04T09:03:56;22.60;39.10
52973;DHT22;38837;48.916;2.336;2023-06-04T09:05:59;22.60;39.00
52973;DHT22;38837;48.916;2.336;2023-06-04T09:08:03;22.70;39.00
52973;DHT22;38837;48.916;2.336;2023-06-04T09:10:10;22.70;39.00
52973;DHT22;38837;48.916;2.336;2023-06-04T09:12:21;22.70;38.50
52973;DHT22;38837;48.916;2.336;2023-06-04T09:14:25;22.70;38.70
52973;DHT22;38837;48.916;2.336;2023-06-04T09:16:27;22.70;38.50
52973;DHT22;38837;48.916;2.336;2023-06-04T09:18:29;22.70;38.60
52973;DHT22;38837;48.916;2.336;2023-06-04T09:20:31;22.70;38.80
52973;DHT22;38837;48.916;2.336;2023-06-04T09:22:36;22.70;38.30
52973;DHT22;38837;48.916;2.336;2023-06-04T09:24:46;22.70;37.90
52973;DHT22;38837;48.916;2.336;2023-06-04T09:26:49;22.80;38.00
52973;DHT22;38837;48.916;2.336;2023-06-04T09:28:51;22.70;37.80
52973;DHT22;38837;48.916;2.336;2023-06-04T09:30:57;22.80;37.40
52973;DHT22;38837;48.916;2.336;2023-06-04T09:33:08;22.80;37.90
52973;DHT22;38837;48.916;2.336;2023-06-04T09:35:18;22.70;36.80
52973;DHT22;38837;48.916;2.336;2023-06-04T09:37:20;22.80;37.10
52973;DHT22;38837;48.916;2.336;2023-06-04T09:39:26;22.80;37.30
52973;DHT22;38837;48.916;2.336;2023-06-04T09:41:29;22.80;36.80
52973;DHT22;38837;48.916;2.336;2023-06-04T09:43:31;22.80;37.30
52973;DHT22;38837;48.916;2.336;2023-06-04T09:45:35;22.80;36.90
52973;DHT22;38837;48.916;2.336;2023-06-04T09:47:41;22.90;36.90
52973;DHT22;38837;48.916;2.336;2023-06-04T09:49:45;22.90;36.30
52973;DHT22;38837;48.916;2.336;2023-06-04T09:51:48;22.90;36.20
52973;DHT22;38837;48.916;2.336;2023-06-04T09:53:57;22.90;35.70
52973;DHT22;38837;48.916;2.336;2023-06-04T09:56:00;22.90;36.00
52973;DHT22;38837;48.916;2.336;2023-06-04T09:58:04;22.90;35.80
52973;DHT22;38837;48.916;2.336;2023-06-04T10:00:08;22.90;35.10
52973;DHT22;38837;48.916;2.336;2023-06-04T10:02:13;22.90;35.50
52973;DHT22;38837;48.916;2.336;2023-06-04T10:04:17;22.90;35.30
52973;DHT22;38837;48.916;2.336;2023-06-04T10:06:19;22.90;35.00
52973;DHT22;38837;48.916;2.336;2023-06-04T10:08:26;22.90;35.80
52973;DHT22;38837;48.916;2.336;2023-06-04T10:10:28;22.90;35.50
52973;DHT22;38837;48.916;2.336;2023-06-04T10:12:35;22.90;35.20
52973;DHT22;38837;48.916;2.336;2023-06-04T10:14:43;22.90;35.50
52973;DHT22;38837;48.916;2.336;2023-06-04T10:16:47;22.90;35.20
52973;DHT22;38837;48.916;2.336;2023-06-04T10:18:54;23.00;35.50
52973;DHT22;38837;48.916;2.336;2023-06-04T10:20:57;23.00;35.30
52973;DHT22;38837;48.916;2.336;2023-06-04T10:23:00;23.00;35.30
52973;DHT22;38837;48.916;2.336;2023-06-04T10:25:02;23.00;35.00
52973;DHT22;38837;48.916;2.336;2023-06-04T10:27:06;23.10;35.70
52973;DHT22;38837;48.916;2.336;2023-06-04T10:29:12;23.10;35.60
52973;DHT22;38837;48.916;2.336;2023-06-04T10:31:16;23.10;35.60
52973;DHT22;38837;48.916;2.336;2023-06-04T10:33:22;23.10;35.80
52973;DHT22;38837;48.916;2.336;2023-06-04T10:35:30;23.10;35.80
52973;DHT22;38837;48.916;2.336;2023-06-04T10:37:32;23.10;35.70
52973;DHT22;38837;48.916;2.336;2023-06-04T10:39:34;23.10;35.60
52973;DHT22;38837;48.916;2.336;2023-06-04T10:41:37;23.10;35.10
52973;DHT22;38837;48.916;2.336;2023-06-04T10:43:40;23.10;35.30
52973;DHT22;38837;48.916;2.336;2023-06-04T10:45:42;23.10;35.40
52973;DHT22;38837;48.916;2.336;2023-06-04T10:47:44;23.20;35.20
52973;DHT22;38837;48.916;2.336;2023-06-04T10:49:53;23.20;34.90
52973;DHT22;38837;48.916;2.336;2023-06-04T10:51:55;23.20;35.20
52973;DHT22;38837;48.916;2.336;2023-06-04T10:53:59;23.20;35.20
52973;DHT22;38837;48.916;2.336;2023-06-04T10:56:01;23.20;35.00
52973;DHT22;38837;48.916;2.336;2023-06-04T10:58:03;23.20;35.20
52973;DHT22;38837;48.916;2.336;2023-06-04T11:00:05;23.20;34.80
52973;DHT22;38837;48.916;2.336;2023-06-04T11:02:11;23.20;35.00
52973;DHT22;38837;48.916;2.336;2023-06-04T11:04:22;23.30;35.30
52973;DHT22;38837;48.916;2.336;2023-06-04T11:06:24;23.30;35.00
52973;DHT22;38837;48.916;2.336;2023-06-04T11:08:30;23.30;34.20
52973;DHT22;38837;48.916;2.336;2023-06-04T11:10:36;23.30;34.70
52973;DHT22;38837;48.916;2.336;2023-06-04T11:12:49;23.30;34.50
52973;DHT22;38837;48.916;2.336;2023-06-04T11:14:57;23.40;34.90
52973;DHT22;38837;48.916;2.336;2023-06-04T11:17:13;23.30;34.80
52973;DHT22;38837;48.916;2.336;2023-06-04T11:19:15;23.40;34.70
52973;DHT22;38837;48.916;2.336;2023-06-04T11:21:17;23.40;34.20
52973;DHT22;38837;48.916;2.336;2023-06-04T11:23:19;23.30;34.40
52973;DHT22;38837;48.916;2.336;2023-06-04T11:25:21;23.40;34.60
52973;DHT22;38837;48.916;2.336;2023-06-04T11:27:24;23.40;34.50
52973;DHT22;38837;48.916;2.336;2023-06-04T11:29:37;23.40;34.50
52973;DHT22;38837;48.916;2.336;2023-06-04T11:31:47;23.50;33.70
52973;DHT22;38837;48.916;2.336;2023-06-04T11:33:49;23.40;34.00
52973;DHT22;38837;48.916;2.336;2023-06-04T11:35:51;23.40;32.80
52973;DHT22;38837;48.916;2.336;2023-06-04T11:37:57;23.50;33.70
52973;DHT22;38837;48.916;2.336;2023-06-04T11:39:59;23.50;33.50
52973;DHT22;38837;48.916;2.336;2023-06-04T11:42:07;23.40;33.80
52973;DHT22;38837;48.916;2.336;2023-06-04T11:44:09;23.50;33.50
52973;DHT22;38837;48.916;2.336;2023-06-04T11:46:13;23.50;33.90
52973;DHT22;38837;48.916;2.336;2023-06-04T11:48:16;23.50;33.90
52973;DHT22;38837;48.916;2.336;2023-06-04T11:50:19;23.50;33.90
52973;DHT22;38837;48.916;2.336;2023-06-04T11:52:22;23.60;34.30
52973;DHT22;38837;48.916;2.336;2023-06-04T11:54:24;23.60;34.50
52973;DHT22;38837;48.916;2.336;2023-06-04T11:56:26;23.60;33.70
52973;DHT22;38837;48.916;2.336;2023-06-04T11:58:29;23.60;34.10
52973;DHT22;38837;48.916;2.336;2023-06-04T12:00:31;23.60;32.90
52973;DHT22;38837;48.916;2.336;2023-06-04T12:02:33;23.60;33.60
52973;DHT22;38837;48.916;2.336;2023-06-04T12:04:35;23.60;33.60
52973;DHT22;38837;48.916;2.336;2023-06-04T12:06:37;23.60;33.90
52973;DHT22;38837;48.916;2.336;2023-06-04T12:08:50;23.70;33.80
52973;DHT22;38837;48.916;2.336;2023-06-04T12:10:53;23.70;33.90
52973;DHT22;38837;48.916;2.336;2023-06-04T12:12:54;23.70;34.00
52973;DHT22;38837;48.916;2.336;2023-06-04T12:14:58;23.70;33.70
52973;DHT22;38837;48.916;2.336;2023-06-04T12:17:09;23.60;33.50
52973;DHT22;38837;48.916;2.336;2023-06-04T12:19:14;23.70;34.00
52973;DHT22;38837;48.916;2.336;2023-06-04T12:21:24;23.70;33.60
52973;DHT22;38837;48.916;2.336;2023-06-04T12:23:29;23.70;33.90
52973;DHT22;38837;48.916;2.336;2023-06-04T12:25:32;23.70;33.90
52973;DHT22;38837;48.916;2.336;2023-06-04T12:27:34;23.70;34.20
52973;DHT22;38837;48.916;2.336;2023-06-04T12:29:36;23.70;33.70
52973;DHT22;38837;48.916;2.336;2023-06-04T12:31:45;23.70;34.20
52973;DHT22;38837;48.916;2.336;2023-06-04T12:33:47;23.80;34.20
52973;DHT22;38837;48.916;2.336;2023-06-04T12:35:49;23.80;34.20
52973;DHT22;38837;48.916;2.336;2023-06-04T12:37:51;23.80;33.90
52973;DHT22;38837;48.916;2.336;2023-06-04T12:39:54;23.80;33.70
52973;DHT22;38837;48.916;2.336;2023-06-04T12:41:56;23.80;33.80
52973;DHT22;38837;48.916;2.336;2023-06-04T12:43:58;23.80;33.90
52973;DHT22;38837;48.916;2.336;2023-06-04T12:46:00;23.80;33.70
52973;DHT22;38837;48.916;2.336;2023-06-04T12:48:02;23.80;33.70
52973;DHT22;38837;48.916;2.336;2023-06-04T12:50:05;23.80;33.70
52973;DHT22;38837;48.916;2.336;2023-06-04T12:52:07;23.90;33.90
52973;DHT22;38837;48.916;2.336;2023-06-04T12:54:10;23.90;34.30
52973;DHT22;38837;48.916;2.336;2023-06-04T12:56:13;23.90;34.00
52973;DHT22;38837;48.916;2.336;2023-06-04T12:58:14;23.90;34.60
52973;DHT22;38837;48.916;2.336;2023-06-04T13:00:17;24.00;34.00